createdAt,value
2018-03-07T00:00:17.694Z,97119.06
2018-03-07T00:02:45.233Z,97123.65
2018-03-07T00:05:12.795Z,97122.69
2018-03-07T00:07:40.325Z,97121.95
2018-03-07T00:10:07.911Z,97117.33
2018-03-07T00:12:35.428Z,97126.77
2018-03-07T00:15:02.968Z,97127.09
2018-03-07T00:17:30.547Z,97118.50
2018-03-07T00:19:58.081Z,97118.17
2018-03-07T00:22:25.680Z,97123.84
2018-03-07T00:24:53.235Z,97131.25
2018-03-07T00:27:20.804Z,97127.41
2018-03-07T00:29:48.349Z,97127.42
2018-03-07T00:32:15.913Z,97133.66
2018-03-07T00:34:43.435Z,97124.94
2018-03-07T00:37:10.994Z,97126.05
2018-03-07T00:39:38.550Z,97128.73
2018-03-07T00:42:06.141Z,97112.59
2018-03-07T00:44:33.679Z,97122.03
2018-03-07T00:47:01.223Z,97116.76
2018-03-07T00:49:29.576Z,97096.00
2018-03-07T00:51:57.100Z,97108.87
2018-03-07T00:54:24.670Z,97110.52
2018-03-07T00:56:52.214Z,97113.86
2018-03-07T00:59:19.817Z,97126.02
2018-03-07T01:01:47.360Z,97125.89
2018-03-07T01:04:14.932Z,97122.57
2018-03-07T01:06:42.471Z,97120.62
2018-03-07T01:09:10.069Z,97132.64
2018-03-07T01:11:37.609Z,97121.66
2018-03-07T01:14:05.135Z,97119.13
2018-03-07T01:16:32.712Z,97124.41
2018-03-07T01:19:00.232Z,97123.80
2018-03-07T01:21:27.788Z,97125.25
2018-03-07T01:23:55.315Z,97117.83
2018-03-07T01:26:22.881Z,97114.17
2018-03-07T01:28:50.407Z,97101.61
2018-03-07T01:31:17.997Z,97110.33
2018-03-07T01:33:45.519Z,97124.66
2018-03-07T01:36:13.038Z,97109.15
2018-03-07T01:38:40.629Z,97115.50
2018-03-07T01:41:08.156Z,97119.03
2018-03-07T01:43:35.728Z,97098.76
2018-03-07T01:46:03.239Z,97097.44
2018-03-07T01:48:30.814Z,97097.36
2018-03-07T01:50:58.339Z,97095.70
2018-03-07T01:53:25.908Z,97097.00
2018-03-07T01:55:53.460Z,97109.34
2018-03-07T01:58:21.047Z,97102.13
2018-03-07T02:00:48.742Z,97116.38
2018-03-07T02:03:16.271Z,97080.61
2018-03-07T02:05:43.830Z,97069.72
2018-03-07T02:08:11.402Z,97081.16
2018-03-07T02:10:38.932Z,97071.11
2018-03-07T02:13:06.510Z,97067.17
2018-03-07T02:15:34.088Z,97072.42
2018-03-07T02:18:01.616Z,97063.31
2018-03-07T02:20:30.010Z,97089.62
2018-03-07T02:22:57.671Z,97079.19
2018-03-07T02:25:25.248Z,97066.70
2018-03-07T02:27:52.776Z,97076.67
2018-03-07T02:30:20.356Z,97088.40
2018-03-07T02:32:47.917Z,97087.10
2018-03-07T02:35:15.497Z,97084.24
2018-03-07T02:37:43.085Z,97073.30
2018-03-07T02:40:10.661Z,97083.90
2018-03-07T02:42:38.187Z,97090.50
2018-03-07T02:45:05.761Z,97079.09
2018-03-07T02:47:33.316Z,97077.72
2018-03-07T02:50:00.886Z,97069.87
2018-03-07T02:52:28.423Z,97074.80
2018-03-07T02:54:55.998Z,97079.01
2018-03-07T02:57:23.543Z,97084.20
2018-03-07T02:59:51.127Z,97087.50
2018-03-07T03:02:18.650Z,97091.83
2018-03-07T03:04:46.209Z,97076.06
2018-03-07T03:07:13.736Z,97077.47
2018-03-07T03:09:41.306Z,97084.41
2018-03-07T03:12:08.820Z,97088.08
2018-03-07T03:14:36.387Z,97079.88
2018-03-07T03:17:03.926Z,97075.66
2018-03-07T03:19:31.497Z,97068.91
2018-03-07T03:21:59.999Z,97028.62
2018-03-07T03:24:27.529Z,97072.72
2018-03-07T03:26:55.070Z,97095.73
2018-03-07T03:29:22.605Z,97092.80
2018-03-07T03:31:50.185Z,97088.77
2018-03-07T03:34:17.716Z,97098.23
2018-03-07T03:36:45.279Z,97094.98
2018-03-07T03:39:12.810Z,97094.67
2018-03-07T03:41:40.365Z,97091.72
2018-03-07T03:44:07.899Z,97091.70
2018-03-07T03:46:35.446Z,97091.30
2018-03-07T03:49:02.974Z,97089.17
2018-03-07T03:51:30.528Z,97091.88
2018-03-07T03:53:58.102Z,97094.88
2018-03-07T03:56:25.679Z,97089.88
2018-03-07T03:58:53.230Z,97099.58
2018-03-07T04:01:20.787Z,97099.69
2018-03-07T04:03:48.315Z,97096.88
2018-03-07T04:06:15.868Z,97109.02
2018-03-07T04:08:43.381Z,97119.23
2018-03-07T04:13:43.874Z,97110.39
2018-03-07T04:16:11.469Z,97115.09
2018-03-07T04:18:39.002Z,97112.45
2018-03-07T04:21:06.558Z,97123.91
2018-03-07T04:23:34.080Z,97121.16
2018-03-07T04:26:01.658Z,97126.75
2018-03-07T04:28:29.182Z,97122.70
2018-03-07T04:30:56.735Z,97133.73
2018-03-07T04:33:24.258Z,97127.37
2018-03-07T04:35:51.791Z,97136.30
2018-03-07T04:38:19.343Z,97130.82
2018-03-07T04:40:46.902Z,97121.08
2018-03-07T04:43:14.471Z,97135.66
2018-03-07T04:45:42.024Z,97135.99
2018-03-07T04:48:09.581Z,97128.36
2018-03-07T04:50:37.106Z,97140.44
2018-03-07T04:53:04.675Z,97132.15
2018-03-07T04:55:32.206Z,97128.80
2018-03-07T04:57:59.763Z,97139.95
2018-03-07T05:00:27.287Z,97137.27
2018-03-07T05:02:54.864Z,97133.48
2018-03-07T05:05:22.394Z,97137.88
2018-03-07T05:07:49.964Z,97145.86
2018-03-07T05:10:17.498Z,97138.48
2018-03-07T05:12:45.057Z,97138.97
2018-03-07T05:15:12.603Z,97152.08
2018-03-07T05:17:40.164Z,97140.82
2018-03-07T05:20:07.726Z,97139.69
2018-03-07T05:22:35.284Z,97140.31
2018-03-07T05:25:02.815Z,97132.39
2018-03-07T05:27:31.076Z,97149.44
2018-03-07T05:29:58.689Z,97143.42
2018-03-07T05:32:26.224Z,97142.66
2018-03-07T05:34:53.769Z,97136.00
2018-03-07T05:37:21.325Z,97131.03
2018-03-07T05:39:48.887Z,97147.80
2018-03-07T05:42:16.477Z,97143.59
2018-03-07T05:44:44.000Z,97150.08
2018-03-07T05:47:11.586Z,97148.10
2018-03-07T05:49:39.143Z,97152.50
2018-03-07T05:52:06.784Z,97161.38
2018-03-07T05:54:34.742Z,97148.96
2018-03-07T05:57:02.292Z,97156.02
2018-03-07T05:59:29.865Z,97157.80
2018-03-07T06:01:57.395Z,97156.23
2018-03-07T06:04:24.971Z,97160.70
2018-03-07T06:06:52.739Z,97165.00
2018-03-07T06:09:20.319Z,97164.01
2018-03-07T06:11:47.840Z,97167.83
2018-03-07T06:14:15.428Z,97179.41
2018-03-07T06:16:42.967Z,97173.80
2018-03-07T06:19:10.493Z,97183.81
2018-03-07T06:21:38.063Z,97191.67
2018-03-07T06:24:05.591Z,97186.78
2018-03-07T06:26:33.171Z,97178.24
2018-03-07T06:29:01.293Z,97178.62
2018-03-07T06:31:28.839Z,97196.16
2018-03-07T06:33:56.374Z,97187.72
2018-03-07T06:36:24.530Z,97179.19
2018-03-07T06:38:52.239Z,97190.02
2018-03-07T06:41:19.806Z,97187.78
2018-03-07T06:43:47.385Z,97191.31
2018-03-07T06:46:14.915Z,97202.16
2018-03-07T06:48:42.488Z,97196.11
2018-03-07T06:51:10.017Z,97201.57
2018-03-07T06:53:37.591Z,97198.87
2018-03-07T06:56:05.144Z,97213.69
2018-03-07T06:58:32.696Z,97215.06
2018-03-07T07:01:00.276Z,97216.36
2018-03-07T07:03:27.819Z,97215.30
2018-03-07T07:05:55.403Z,97232.16
2018-03-07T07:08:22.937Z,97224.15
2018-03-07T07:10:50.507Z,97235.36
2018-03-07T07:13:18.027Z,97230.64
2018-03-07T07:15:45.604Z,97234.12
2018-03-07T07:18:13.115Z,97231.12
2018-03-07T07:20:40.649Z,97242.50
2018-03-07T07:23:08.250Z,97246.30
2018-03-07T07:25:35.776Z,97247.27
2018-03-07T07:28:03.343Z,97242.18
2018-03-07T07:30:31.552Z,97247.78
2018-03-07T07:32:59.105Z,97250.34
2018-03-07T07:35:26.749Z,97245.38
2018-03-07T07:37:54.299Z,97251.52
2018-03-07T07:40:21.934Z,97258.31
2018-03-07T07:42:49.505Z,97255.27
2018-03-07T07:45:17.088Z,97257.53
2018-03-07T07:47:44.609Z,97266.63
2018-03-07T07:50:12.165Z,97266.38
2018-03-07T07:52:39.693Z,97272.31
2018-03-07T07:55:07.247Z,97290.09
2018-03-07T07:57:34.784Z,97281.10
2018-03-07T08:00:02.392Z,97285.34
2018-03-07T08:02:30.142Z,97291.17
2018-03-07T08:04:57.887Z,97287.59
2018-03-07T08:07:25.519Z,97284.88
2018-03-07T08:09:53.452Z,97289.48
2018-03-07T08:12:22.547Z,97294.11
2018-03-07T08:14:50.610Z,97292.52
2018-03-07T08:17:18.405Z,97290.03
2018-03-07T08:19:46.574Z,97292.34
2018-03-07T08:22:14.327Z,97298.22
2018-03-07T08:24:42.306Z,97296.81
2018-03-07T08:27:10.155Z,97298.23
2018-03-07T08:29:37.817Z,97301.61
2018-03-07T08:32:05.404Z,97293.20
2018-03-07T08:34:33.065Z,97303.09
2018-03-07T08:37:00.592Z,97302.46
2018-03-07T08:39:28.151Z,97301.80
2018-03-07T08:41:55.688Z,97298.67
2018-03-07T08:44:23.242Z,97296.96
2018-03-07T08:46:50.811Z,97306.89
2018-03-07T08:49:18.448Z,97304.43
2018-03-07T08:51:46.000Z,97303.80
2018-03-07T08:54:13.550Z,97307.86
2018-03-07T08:56:41.128Z,97303.27
2018-03-07T08:59:08.681Z,97310.70
2018-03-07T09:01:38.355Z,97312.80
2018-03-07T09:04:09.849Z,97309.34
2018-03-07T09:06:37.471Z,97321.95
2018-03-07T09:09:05.016Z,97324.80
2018-03-07T09:11:33.215Z,97323.73
2018-03-07T09:14:00.823Z,97323.09
2018-03-07T09:16:28.379Z,97330.42
2018-03-07T09:18:55.899Z,97333.92
2018-03-07T09:21:23.456Z,97327.88
2018-03-07T09:23:50.982Z,97336.06
2018-03-07T09:26:18.541Z,97339.61
2018-03-07T09:28:47.033Z,97334.80
2018-03-07T09:31:14.665Z,97336.89
2018-03-07T09:33:42.191Z,97343.34
2018-03-07T09:36:09.815Z,97346.89
2018-03-07T09:38:37.322Z,97354.25
2018-03-07T09:41:04.924Z,97361.58
2018-03-07T09:43:33.320Z,97354.20
2018-03-07T09:46:00.838Z,97353.97
2018-03-07T09:48:28.408Z,97353.03
2018-03-07T09:50:55.925Z,97363.16
2018-03-07T09:53:23.495Z,97373.16
2018-03-07T09:55:51.010Z,97361.79
2018-03-07T09:58:18.567Z,97364.40
2018-03-07T10:00:46.115Z,97362.93
2018-03-07T10:03:13.666Z,97380.11
2018-03-07T10:05:41.195Z,97371.37
2018-03-07T10:08:08.731Z,97384.19
2018-03-07T10:10:36.252Z,97386.56
2018-03-07T10:13:03.827Z,97378.49
2018-03-07T10:15:31.356Z,97381.58
2018-03-07T10:17:59.511Z,97390.18
2018-03-07T10:20:27.035Z,97386.91
2018-03-07T10:22:54.822Z,97396.05
2018-03-07T10:25:23.143Z,97399.55
2018-03-07T10:27:50.704Z,97393.91
2018-03-07T10:30:18.358Z,97395.44
2018-03-07T10:32:45.993Z,97397.71
2018-03-07T10:35:13.545Z,97406.77
2018-03-07T10:37:41.116Z,97408.31
2018-03-07T10:40:08.643Z,97401.70
2018-03-07T10:42:36.204Z,97406.69
2018-03-07T10:45:03.759Z,97429.28
2018-03-07T10:47:31.329Z,97429.50
2018-03-07T10:49:58.857Z,97424.82
2018-03-07T10:52:26.411Z,97418.46
2018-03-07T10:54:53.928Z,97417.84
2018-03-07T10:57:21.487Z,97428.27
2018-03-07T10:59:51.124Z,97426.55
2018-03-07T11:02:21.120Z,97419.28
2018-03-07T11:04:51.366Z,97423.95
2018-03-07T11:07:19.748Z,97421.94
2018-03-07T11:09:54.503Z,97433.23
2018-03-07T11:12:26.485Z,97441.27
2018-03-07T11:14:58.341Z,97432.52
2018-03-07T11:17:36.840Z,97440.20
2018-03-07T11:20:10.022Z,97459.30
2018-03-07T11:22:43.100Z,97439.91
2018-03-07T11:25:15.743Z,97433.31
2018-03-07T11:27:48.146Z,97445.11
2018-03-07T11:30:20.095Z,97442.06
2018-03-07T11:32:52.854Z,97451.89
2018-03-07T11:35:24.302Z,97444.38
2018-03-07T11:37:59.704Z,97445.79
2018-03-07T11:40:31.359Z,97448.17
2018-03-07T11:43:03.553Z,97446.83
2018-03-07T11:45:35.316Z,97444.78
2018-03-07T11:48:08.055Z,97447.05
2018-03-07T11:50:39.063Z,97441.65
2018-03-07T11:53:09.653Z,97438.35
2018-03-07T11:55:39.655Z,97444.89
2018-03-07T11:58:12.883Z,97444.22
2018-03-07T12:00:43.243Z,97441.25
2018-03-07T12:03:15.526Z,97433.64
2018-03-07T12:05:49.645Z,97434.27
2018-03-07T12:08:20.450Z,97430.38
2018-03-07T12:10:52.128Z,97434.89
2018-03-07T12:13:25.671Z,97433.33
2018-03-07T12:15:57.755Z,97430.67
2018-03-07T12:18:29.034Z,97431.23
2018-03-07T12:21:02.044Z,97429.25
2018-03-07T12:23:33.393Z,97428.53
2018-03-07T12:26:07.238Z,97434.50
2018-03-07T12:28:39.384Z,97430.34
2018-03-07T12:31:10.859Z,97426.44
2018-03-07T12:33:42.494Z,97424.16
2018-03-07T12:36:13.329Z,97411.22
2018-03-07T12:38:44.905Z,97420.19
2018-03-07T12:41:16.775Z,97426.59
2018-03-07T12:43:51.469Z,97418.67
2018-03-07T12:46:22.703Z,97413.69
2018-03-07T12:48:53.582Z,97414.90
2018-03-07T12:51:25.287Z,97413.33
2018-03-07T12:53:57.040Z,97410.28
2018-03-07T12:56:29.228Z,97419.23
2018-03-07T12:59:02.396Z,97420.92
2018-03-07T13:01:33.502Z,97423.67
2018-03-07T13:04:06.035Z,97434.30
2018-03-07T13:06:39.089Z,97421.70
2018-03-07T13:09:12.609Z,97426.63
2018-03-07T13:11:43.923Z,97429.78
2018-03-07T13:14:15.346Z,97429.35
2018-03-07T13:16:47.721Z,97433.34
2018-03-07T13:19:21.207Z,97441.81
2018-03-07T13:21:54.557Z,97432.97
2018-03-07T13:24:26.020Z,97438.11
2018-03-07T13:26:58.201Z,97436.24
2018-03-07T13:29:30.576Z,97443.23
2018-03-07T13:32:00.304Z,97436.83
2018-03-07T13:34:32.336Z,97446.84
2018-03-07T13:37:06.148Z,97449.81
2018-03-07T13:39:37.925Z,97433.95
2018-03-07T13:42:07.468Z,97443.73
2018-03-07T13:44:37.396Z,97480.23
2018-03-07T13:47:07.958Z,97466.70
2018-03-07T13:49:38.217Z,97476.71
2018-03-07T13:52:08.513Z,97469.53
2018-03-07T13:54:39.206Z,97474.17
2018-03-07T13:57:08.774Z,97477.27
2018-03-07T13:59:39.384Z,97473.58
2018-03-07T14:02:09.080Z,97469.04
2018-03-07T14:04:38.042Z,97480.93
2018-03-07T14:07:08.895Z,97469.62
2018-03-07T14:09:38.948Z,97480.64
2018-03-07T14:12:10.780Z,97486.67
2018-03-07T14:14:41.134Z,97491.73
2018-03-07T14:17:11.296Z,97495.69
2018-03-07T14:19:42.884Z,97486.56
2018-03-07T14:22:13.568Z,97491.61
2018-03-07T14:24:44.662Z,97492.31
2018-03-07T14:27:14.999Z,97500.50
2018-03-07T14:29:47.478Z,97501.38
2018-03-07T14:32:17.922Z,97489.17
2018-03-07T14:34:48.782Z,97485.92
2018-03-07T14:37:20.478Z,97485.45
2018-03-07T14:39:51.837Z,97485.27
2018-03-07T14:42:19.622Z,97485.83
2018-03-07T14:44:50.999Z,97493.34
2018-03-07T14:47:22.461Z,97492.76
2018-03-07T14:49:53.406Z,97496.30
2018-03-07T14:52:23.150Z,97480.58
2018-03-07T14:54:52.848Z,97481.25
2018-03-07T14:57:23.008Z,97486.68
2018-03-07T14:59:53.462Z,97495.95
2018-03-07T15:02:25.121Z,97487.16
2018-03-07T15:04:55.117Z,97498.14
2018-03-07T15:07:25.207Z,97485.99
2018-03-07T15:09:55.202Z,97496.59
2018-03-07T15:12:25.610Z,97494.18
2018-03-07T15:14:56.298Z,97497.61
2018-03-07T15:17:26.317Z,97490.31
2018-03-07T15:19:57.200Z,97484.98
2018-03-07T15:22:28.062Z,97491.55
2018-03-07T15:24:55.892Z,97492.07
2018-03-07T15:27:23.577Z,97485.81
2018-03-07T15:29:53.622Z,97502.77
2018-03-07T15:32:22.625Z,97499.89
2018-03-07T15:34:50.169Z,97509.70
2018-03-07T15:37:19.929Z,97503.77
2018-03-07T15:39:51.058Z,97516.63
2018-03-07T15:42:19.288Z,97509.33
2018-03-07T15:44:46.804Z,97510.34
2018-03-07T15:47:14.502Z,97507.38
2018-03-07T15:49:42.042Z,97519.97
2018-03-07T15:52:12.764Z,97517.06
2018-03-07T15:54:41.974Z,97537.45
2018-03-07T15:57:09.590Z,97519.42
2018-03-07T15:59:39.602Z,97522.97
2018-03-07T16:02:07.778Z,97529.38
2018-03-07T16:04:35.578Z,97532.69
2018-03-07T16:07:03.293Z,97535.83
2018-03-07T16:09:30.821Z,97525.02
2018-03-07T16:11:58.404Z,97537.69
2018-03-07T16:14:25.920Z,97536.83
2018-03-07T16:16:53.659Z,97537.80
2018-03-07T16:19:21.226Z,97546.27
2018-03-07T16:21:48.763Z,97555.13
2018-03-07T16:24:16.286Z,97563.77
2018-03-07T16:26:43.846Z,97556.09
2018-03-07T16:29:11.360Z,97558.22
2018-03-07T16:31:38.895Z,97561.83
2018-03-07T16:34:06.856Z,97572.74
2018-03-07T16:36:34.594Z,97578.70
2018-03-07T16:39:02.178Z,97570.80
2018-03-07T16:41:30.204Z,97584.50
2018-03-07T16:43:58.183Z,97597.45
2018-03-07T16:46:25.710Z,97599.45
2018-03-07T16:48:53.667Z,97600.09
2018-03-07T16:51:21.186Z,97617.36
2018-03-07T16:53:48.740Z,97618.06
2018-03-07T16:56:16.329Z,97612.80
2018-03-07T16:58:43.894Z,97622.80
2018-03-07T17:01:11.403Z,97625.41
2018-03-07T17:03:39.013Z,97626.44
2018-03-07T17:06:06.650Z,97635.03
2018-03-07T17:08:34.444Z,97628.83
2018-03-07T17:11:02.103Z,97634.06
2018-03-07T17:13:29.662Z,97632.69
2018-03-07T17:15:57.329Z,97643.61
2018-03-07T17:18:24.900Z,97648.92
2018-03-07T17:20:52.564Z,97654.84
2018-03-07T17:23:20.111Z,97656.73
2018-03-07T17:25:47.620Z,97659.31
2018-03-07T17:28:15.173Z,97659.24
2018-03-07T17:30:42.681Z,97663.94
2018-03-07T17:33:10.219Z,97670.05
2018-03-07T17:35:37.749Z,97686.94
2018-03-07T17:38:05.305Z,97689.23
2018-03-07T17:40:33.682Z,97701.70
2018-03-07T17:43:01.235Z,97703.59
2018-03-07T17:45:28.768Z,97708.77
2018-03-07T17:47:56.336Z,97715.69
2018-03-07T17:50:23.993Z,97717.77
2018-03-07T17:52:51.516Z,97705.27
2018-03-07T17:55:19.064Z,97724.80
2018-03-07T17:57:46.581Z,97708.59
2018-03-07T18:00:14.156Z,97723.50
2018-03-07T18:02:41.691Z,97731.34
2018-03-07T18:05:09.258Z,97740.67
2018-03-07T18:07:36.776Z,97732.51
2018-03-07T18:10:04.336Z,97740.83
2018-03-07T18:12:31.867Z,97751.98
2018-03-07T18:14:59.418Z,97744.53
2018-03-07T18:17:27.142Z,97747.30
2018-03-07T18:19:54.716Z,97761.34
2018-03-07T18:22:22.240Z,97745.25
2018-03-07T18:24:50.563Z,97760.70
2018-03-07T18:27:18.087Z,97771.23
2018-03-07T18:29:45.647Z,97750.98
2018-03-07T18:32:13.162Z,97753.16
2018-03-07T18:34:40.733Z,97770.30
2018-03-07T18:37:08.248Z,97771.38
2018-03-07T18:39:35.779Z,97780.89
2018-03-07T18:42:04.236Z,97725.44
2018-03-07T18:44:31.744Z,97783.14
2018-03-07T18:46:59.286Z,97783.31
2018-03-07T18:49:26.805Z,97785.41
2018-03-07T18:51:54.344Z,97789.48
2018-03-07T18:54:21.866Z,97795.58
2018-03-07T18:56:49.412Z,97793.99
2018-03-07T18:59:16.984Z,97794.70
2018-03-07T19:01:44.537Z,97796.03
2018-03-07T19:04:12.060Z,97802.15
2018-03-07T19:06:40.175Z,97798.25
2018-03-07T19:09:08.295Z,97800.72
2018-03-07T19:11:35.912Z,97807.25
2018-03-07T19:14:04.345Z,97805.65
2018-03-07T19:16:31.872Z,97818.16
2018-03-07T19:18:59.414Z,97808.47
2018-03-07T19:21:26.928Z,97810.72
2018-03-07T19:23:54.483Z,97816.48
2018-03-07T19:26:22.585Z,97817.61
2018-03-07T19:28:50.396Z,97824.24
2018-03-07T19:31:17.956Z,97822.11
2018-03-07T19:33:45.802Z,97833.80
2018-03-07T19:36:13.357Z,97832.45
2018-03-07T19:38:40.895Z,97837.23
2018-03-07T19:41:08.416Z,97839.47
2018-03-07T19:43:35.998Z,97839.98
2018-03-07T19:46:03.508Z,97845.30
2018-03-07T19:48:31.057Z,97841.96
2018-03-07T19:50:58.600Z,97830.06
2018-03-07T19:53:26.117Z,97846.50
2018-03-07T19:55:53.695Z,97859.60
2018-03-07T19:58:21.232Z,97863.41
2018-03-07T20:00:48.779Z,97874.95
2018-03-07T20:03:16.300Z,97862.77
2018-03-07T20:05:43.843Z,97868.50
2018-03-07T20:08:11.718Z,97862.65
2018-03-07T20:10:40.872Z,97809.27
2018-03-07T20:13:11.026Z,97898.02
2018-03-07T20:15:38.791Z,97892.61
2018-03-07T20:18:06.648Z,97903.06
2018-03-07T20:20:35.126Z,97881.98
2018-03-07T20:23:02.687Z,97891.11
2018-03-07T20:25:30.239Z,97881.57
2018-03-07T20:27:57.757Z,97887.98
2018-03-07T20:30:25.303Z,97902.27
2018-03-07T20:32:52.819Z,97901.70
2018-03-07T20:35:20.372Z,97926.36
2018-03-07T20:37:47.895Z,97922.69
2018-03-07T20:40:15.441Z,97926.27
2018-03-07T20:42:42.971Z,97936.16
2018-03-07T20:45:10.511Z,97932.59
2018-03-07T20:47:38.071Z,97942.74
2018-03-07T20:50:07.348Z,97948.91
2018-03-07T20:52:35.382Z,97946.38
2018-03-07T20:55:02.938Z,97951.48
2018-03-07T20:57:30.476Z,97953.38
2018-03-07T20:59:58.035Z,97959.22
2018-03-07T21:02:25.573Z,97961.91
2018-03-07T21:04:53.151Z,97969.17
2018-03-07T21:07:20.679Z,97974.41
2018-03-07T21:09:48.224Z,97978.80
2018-03-07T21:12:15.831Z,97967.38
2018-03-07T21:14:43.379Z,97995.29
2018-03-07T21:17:10.932Z,97974.81
2018-03-07T21:19:38.488Z,97981.11
2018-03-07T21:22:06.001Z,97984.59
2018-03-07T21:24:33.565Z,97983.91
2018-03-07T21:27:01.116Z,98001.30
2018-03-07T21:29:28.652Z,97998.77
2018-03-07T21:31:56.196Z,98001.12
2018-03-07T21:34:23.811Z,98012.59
2018-03-07T21:36:51.384Z,98003.58
2018-03-07T21:39:18.994Z,98011.20
2018-03-07T21:41:51.202Z,98008.29
2018-03-07T21:44:19.177Z,98007.46
2018-03-07T21:46:46.752Z,98008.12
2018-03-07T21:49:16.223Z,98020.13
2018-03-07T21:51:46.639Z,98021.03
2018-03-07T21:54:15.674Z,98025.73
2018-03-07T21:56:44.821Z,98026.59
2018-03-07T21:59:13.228Z,98029.77
2018-03-07T22:01:41.526Z,98041.05
2018-03-07T22:04:10.828Z,98049.02
2018-03-07T22:06:39.539Z,98047.23
2018-03-07T22:09:10.029Z,98056.16
2018-03-07T22:11:38.637Z,98046.08
2018-03-07T22:14:07.903Z,98057.31
2018-03-07T22:16:36.209Z,98057.64
2018-03-07T22:19:04.832Z,98054.65
2018-03-07T22:21:33.657Z,98056.52
2018-03-07T22:24:02.523Z,98053.90
2018-03-07T22:26:32.123Z,98051.44
2018-03-07T22:29:01.861Z,98051.33
2018-03-07T22:31:30.575Z,98058.59
2018-03-07T22:33:59.189Z,98052.30
2018-03-07T22:36:27.936Z,98058.13
2018-03-07T22:38:57.736Z,98065.50
2018-03-07T22:41:26.355Z,98070.59
2018-03-07T22:43:56.788Z,98076.17
2018-03-07T22:46:25.797Z,98080.61
2018-03-07T22:48:56.706Z,98092.39
2018-03-07T22:51:26.895Z,98080.92
2018-03-07T22:53:54.678Z,98095.37
2018-03-07T22:56:22.252Z,98089.93
2018-03-07T22:58:49.798Z,98098.39
2018-03-07T23:01:19.248Z,98112.31
2018-03-07T23:03:46.810Z,98121.27
2018-03-07T23:06:14.364Z,98110.46
2018-03-07T23:08:41.939Z,98117.73
2018-03-07T23:11:09.459Z,98120.94
2018-03-07T23:13:37.032Z,98118.11
2018-03-07T23:16:04.567Z,98124.50
2018-03-07T23:18:32.111Z,98119.64
2018-03-07T23:20:59.656Z,98118.78
2018-03-07T23:23:27.203Z,98120.39
2018-03-07T23:25:54.728Z,98130.70
2018-03-07T23:28:22.273Z,98141.09
2018-03-07T23:30:49.795Z,98139.81
2018-03-07T23:33:17.372Z,98131.33
2018-03-07T23:35:44.886Z,98136.88
2018-03-07T23:38:12.479Z,98139.63
2018-03-07T23:40:40.028Z,98139.63
2018-03-07T23:43:07.563Z,98161.20
2018-03-07T23:45:36.072Z,98156.31
2018-03-07T23:48:03.594Z,98154.66
2018-03-07T23:50:31.143Z,98160.55
2018-03-07T23:52:58.678Z,98160.46
2018-03-07T23:55:26.231Z,98152.58
2018-03-07T23:57:53.892Z,98163.59
